Latest Weather Observations for Canberra

IDN60901

Issued at 11:11 am EDT Monday 2 February 2015 (issued every 10 minutes, with the page automatically refreshed every 10 minutes)

About weather observations | Map of Canberra area stations | Latest observations for Canberra area | Other Formats
Station Details ID: 070351 Name: CANBERRA AIRPORT Lat: -35.31 Lon: 149.20 Height: 577.05 m
Data from the previous 72 hours. | See also: Recent months at Canberra
Date/Time
EDT
Tmp

°C
App
Tmp
°C
Dew
Point
°C
Rel
Hum
%
Delta-T

°C
Wind Press
QNH
hPa
Press
MSL
hPa
Rain
since
9 am
mm
Dir
 
Spd
km/h
Gust
km/h
Spd
kts
Gust
kts
02/11:00am 18.8 16.4 10.1 57 4.8 SE 13 24 7 13 1018.4 - 0.2
02/10:30am 18.7 16.3 11.5 63 4.1 S 15 22 8 12 1018.4 - 0.2
02/10:00am 17.5 14.3 10.1 62 4.0 S 17 26 9 14 1018.2 - 0.0
02/09:30am 16.2 13.6 9.2 63 3.7 SSE 13 19 7 10 1018.1 - 0.0
02/09:00am 15.4 12.0 9.1 66 3.3 S 17 22 9 12 1018.0 1015.6 12.6
02/08:30am 15.2 11.6 10.0 71 2.8 SSE 19 26 10 14 1017.7 - 12.6
02/08:00am 14.3 10.6 9.5 73 2.5 S 19 28 10 15 1017.2 - 12.6
02/07:30am 13.5 10.1 9.0 74 2.3 S 17 19 9 10 1016.9 - 12.6
02/07:00am 12.7 9.7 9.3 80 1.8 S 15 20 8 11 1016.4 - 12.6
02/06:30am 12.3 8.9 9.1 81 1.7 S 17 22 9 12 1015.8 - 12.6
02/06:00am 12.3 9.8 9.7 84 1.4 SSE 13 19 7 10 1015.2 1012.8 12.6
02/05:30am 12.4 10.3 9.8 84 1.4 S 11 15 6 8 1015.0 - 12.6
02/05:00am 12.7 11.2 10.4 86 1.2 S 9 11 5 6 1014.5 - 12.6
02/04:30am 12.7 10.8 10.4 86 1.2 SSE 11 15 6 8 1014.2 - 12.6
02/04:00am 12.9 11.6 11.1 89 1.0 SE 9 11 5 6 1014.2 - 12.6
02/03:30am 13.1 11.8 11.2 88 1.0 SSE 9 11 5 6 1014.2 - 12.6
02/03:00am 13.4 11.7 11.3 87 1.1 S 11 15 6 8 1014.4 1012.0 12.6
02/02:58am 13.4 11.7 11.3 87 1.1 S 11 15 6 8 1014.4 - 12.6
02/02:30am 13.9 12.2 12.3 90 0.9 SSE 13 15 7 8 1014.4 - 12.6
02/02:21am 13.9 12.2 12.5 91 0.8 SSE 13 17 7 9 1014.5 - 12.6
02/02:00am 13.8 11.8 12.7 93 0.6 S 15 19 8 10 1014.5 - 12.6
02/01:30am 14.0 13.6 12.9 93 0.6 SSE 7 9 4 5 1014.6 - 12.6
02/01:00am 14.5 14.8 13.5 94 0.6 E 4 9 2 5 1014.8 - 12.6
02/12:30am 14.8 14.3 13.8 94 0.6 NE 9 11 5 6 1015.0 - 12.4
02/12:00am 14.8 14.9 14.0 95 0.5 SE 6 9 3 5 1015.1 1012.7 12.4
 
Date/Time
EDT
Tmp

°C
App
Tmp
°C
Dew
Point
°C
Rel
Hum
%
Delta-T

°C
Wind Press
QNH
hPa
Press
MSL
hPa
Rain
since
9 am
mm
Dir
 
Spd
km/h
Gust
km/h
Spd
kts
Gust
kts
01/11:30pm 14.7 14.3 14.2 97 0.3 ESE 9 13 5 7 1014.7 - 12.2
01/11:00pm 14.6 14.2 14.0 96 0.3 SE 9 11 5 6 1014.5 - 10.6
01/10:49pm 14.7 14.3 14.1 96 0.3 ESE 9 11 5 6 1014.5 - 9.8
01/10:46pm 14.8 14.4 14.2 96 0.3 ESE 9 11 5 6 1014.5 - 9.6
01/10:30pm 14.9 14.9 14.1 95 0.5 W 7 9 4 5 1014.8 - 8.6
01/10:00pm 14.8 14.0 14.0 95 0.5 NNW 11 13 6 7 1014.5 - 7.6
01/09:59pm 14.8 14.0 14.0 95 0.5 NNW 11 13 6 7 1014.5 - 7.4
01/09:30pm 14.9 14.0 13.8 93 0.6 N 11 15 6 8 1013.9 - 6.6
01/09:00pm 14.9 12.8 13.6 92 0.7 SSE 17 20 9 11 1013.2 1010.8 5.8
01/08:30pm 15.1 15.0 13.8 92 0.8 N 7 11 4 6 1012.6 - 5.4
01/08:04pm 15.2 12.8 13.7 91 0.9 E 19 30 10 16 1012.4 - 5.0
01/08:00pm 15.3 12.3 13.8 91 0.9 E 22 30 12 16 1012.3 - 4.8
01/07:44pm 15.4 12.9 14.1 92 0.8 E 20 30 11 16 1012.4 - 3.4
01/07:30pm 15.7 13.9 14.4 92 0.8 SE 17 22 9 12 1012.2 - 2.2
01/07:00pm 15.9 14.8 14.3 90 0.9 S 13 17 7 9 1012.2 - 1.0
01/06:30pm 15.9 15.4 13.9 88 1.2 SE 9 13 5 7 1011.2 - 0.8
01/05:30pm 16.2 14.1 13.7 85 1.4 SE 17 26 9 14 1010.6 - 0.0
01/05:00pm 17.8 13.7 11.4 66 3.6 S 24 32 13 17 1010.3 - 0.0
01/04:30pm 17.8 12.6 10.4 62 4.1 S 28 35 15 19 1010.4 - 0.0
01/04:19pm 18.2 12.0 10.1 59 4.4 SSW 33 48 18 26 1010.3 - 0.0
01/04:00pm 23.2 18.9 7.7 37 8.4 SW 20 39 11 21 1009.8 - 0.0
01/03:30pm 24.3 21.3 7.9 35 8.9 WNW 13 19 7 10 1009.5 - 0.0
01/03:00pm 23.2 21.5 8.5 39 8.1 SW 7 11 4 6 1009.7 1007.2 0.0
01/02:30pm 22.9 20.5 8.6 40 7.8 WSW 11 17 6 9 1010.2 - 0.0
01/02:00pm 23.2 20.4 8.5 39 8.0 NNE 13 19 7 10 1010.3 - 0.0
01/01:30pm 22.2 20.1 9.7 45 6.9 NNE 11 17 6 9 1010.7 - 0.0
01/01:00pm 22.5 20.5 10.0 45 7.0 WSW 11 17 6 9 1010.9 - 0.0
01/12:30pm 21.0 19.2 9.6 48 6.3 ENE 9 13 5 7 1011.3 - 0.0
01/12:00pm 20.0 18.8 9.6 51 5.7 E 6 13 3 7 1011.6 1009.2 0.0
01/11:30am 19.5 18.1 9.7 53 5.4 ESE 7 13 4 7 1011.9 - 0.0
01/11:00am 18.5 17.0 10.6 60 4.4 SSE 9 13 5 7 1012.0 - 0.0
01/10:30am 17.9 16.3 10.3 61 4.2 SSW 9 15 5 8 1012.1 - 0.0
01/10:00am 17.8 16.4 10.9 64 3.8 S 9 15 5 8 1011.7 - 0.0
01/09:30am 16.8 14.9 10.6 67 3.4 S 11 15 6 8 1011.7 - 0.0
01/09:00am 15.8 14.2 10.3 70 3.0 SSE 9 11 5 6 1011.6 1009.2 0.2
01/08:30am 15.1 13.8 11.1 77 2.2 SSE 9 11 5 6 1011.5 - 0.2
01/08:00am 14.5 13.7 11.1 80 1.9 SSE 6 7 3 4 1011.3 - 0.2
01/07:30am 14.0 13.2 11.0 82 1.6 E 6 7 3 4 1011.0 - 0.2
01/07:00am 13.5 12.6 10.7 83 1.5 SE 6 9 3 5 1010.9 - 0.2
01/06:30am 13.1 13.2 10.3 83 1.5 CALM 0 0 0 0 1010.8 - 0.2
01/06:00am 13.3 13.4 10.3 82 1.6 CALM 0 0 0 0 1010.6 1008.1 0.2
01/05:30am 13.2 13.2 9.8 80 1.8 CALM 0 0 0 0 1010.3 - 0.2
01/05:00am 13.3 13.4 10.3 82 1.6 CALM 0 0 0 0 1010.3 - 0.2
01/04:30am 13.2 13.3 10.0 81 1.7 CALM 0 0 0 0 1010.2 - 0.2
01/04:00am 12.9 12.9 9.7 81 1.7 CALM 0 0 0 0 1010.1 - 0.2
01/03:30am 13.2 13.2 9.8 80 1.8 CALM 0 0 0 0 1010.4 - 0.2
01/03:00am 12.2 12.2 9.8 85 1.3 CALM 0 0 0 0 1010.4 1007.9 0.2
01/02:30am 12.4 11.3 10.1 86 1.2 SE 6 7 3 4 1010.4 - 0.2
01/02:00am 13.8 12.7 10.6 81 1.7 ENE 7 7 4 4 1010.6 - 0.2
01/01:30am 13.2 13.5 10.9 86 1.2 CALM 0 0 0 0 1010.7 - 0.2
01/01:00am 13.1 12.7 11.0 87 1.1 E 4 7 2 4 1010.6 - 0.2
01/12:30am 12.8 13.0 10.5 86 1.2 CALM 0 0 0 0 1010.6 - 0.2
01/12:00am 11.5 10.6 9.4 87 1.1 N 4 9 2 5 1010.7 1008.2 0.2
 
Date/Time
EDT
Tmp

°C
App
Tmp
°C
Dew
Point
°C
Rel
Hum
%
Delta-T

°C
Wind Press
QNH
hPa
Press
MSL
hPa
Rain
since
9 am
mm
Dir
 
Spd
km/h
Gust
km/h
Spd
kts
Gust
kts
31/11:30pm 11.7 10.2 9.3 85 1.2 E 7 9 4 5 1010.7 - 0.2
31/11:00pm 13.2 13.3 10.0 81 1.7 CALM 0 0 0 0 1010.9 - 0.2
31/10:30pm 12.9 11.5 10.8 87 1.1 ESE 9 11 5 6 1010.9 - 0.2
31/10:00pm 14.3 13.8 10.7 79 2.0 NE 4 7 2 4 1010.6 - 0.2
31/09:30pm 15.9 16.1 11.7 76 2.3 SSE 2 6 1 3 1010.3 - 0.2
31/09:00pm 16.1 15.6 12.1 77 2.3 S 6 9 3 5 1009.8 1007.4 0.2
31/08:30pm 16.4 15.9 12.8 79 2.1 SSE 7 11 4 6 1009.6 - 0.2
31/08:00pm 17.7 17.2 12.2 70 3.1 S 6 7 3 4 1009.3 - 0.2
31/07:30pm 18.3 17.3 12.3 68 3.4 S 9 11 5 6 1008.9 - 0.2
31/07:00pm 17.2 16.3 13.7 80 2.0 S 11 15 6 8 1008.7 - 0.0
31/06:30pm 19.1 18.9 10.6 58 4.7 NNW 2 7 1 4 1008.6 - 0.0
31/06:00pm 19.7 18.1 11.5 59 4.7 N 11 17 6 9 1008.0 1005.5 0.0
31/05:30pm 20.3 19.2 10.7 54 5.4 NW 7 11 4 6 1008.0 - 0.0
31/05:00pm 20.1 18.3 10.8 55 5.2 WSW 11 13 6 7 1008.0 - 0.0
31/04:30pm 20.2 18.1 11.1 56 5.1 SW 13 17 7 9 1008.0 - 0.0
31/04:00pm 19.7 16.9 11.5 59 4.6 WSW 17 24 9 13 1007.8 - 0.0
31/03:30pm 21.5 18.7 8.7 44 7.0 W 13 17 7 9 1007.5 - 0.0
31/03:00pm 21.8 18.5 8.0 41 7.4 W 15 20 8 11 1007.5 1005.0 0.0
31/02:30pm 23.5 21.0 8.4 38 8.3 SE 11 20 6 11 1007.4 - 0.0
31/02:00pm 22.4 19.5 8.1 40 7.7 WNW 13 20 7 11 1007.5 - 0.0
31/01:30pm 22.7 20.2 8.4 40 7.8 WSW 11 17 6 9 1007.7 - 0.0
31/01:00pm 21.7 19.0 7.5 40 7.6 SW 11 17 6 9 1008.0 - 0.0
31/12:30pm 21.0 18.7 7.3 41 7.2 ESE 9 15 5 8 1008.3 - 0.0
31/12:00pm 20.1 17.8 7.5 44 6.7 NW 9 17 5 9 1008.7 1006.2 0.0
31/11:30am 19.4 16.3 7.2 45 6.4 WSW 13 24 7 13 1009.0 - 0.0
31/11:00am 19.5 16.3 6.9 44 6.5 SW 13 22 7 12 1009.2 - 0.0
31/10:30am 18.8 15.7 7.3 47 6.0 S 13 22 7 12 1009.3 - 0.0
31/10:00am 17.7 14.6 7.2 50 5.4 SSW 13 20 7 11 1009.4 - 0.0
31/09:30am 17.2 15.5 8.4 56 4.6 WSW 7 13 4 7 1009.5 - 0.0
31/09:00am 15.6 14.0 7.9 60 4.0 SSW 6 9 3 5 1009.6 1007.1 0.0
31/08:30am 14.1 13.0 6.7 61 3.7 W 2 7 1 4 1009.6 - 0.0
31/08:00am 12.9 11.0 7.6 70 2.7 N 7 9 4 5 1009.6 - 0.0
31/07:30am 10.7 9.0 8.3 85 1.2 N 7 9 4 5 1009.4 - 0.0
31/07:00am 9.2 7.3 6.8 85 1.2 N 6 7 3 4 1009.2 - 0.0
31/06:30am 8.5 7.7 6.3 86 1.0 CALM 0 0 0 0 1008.9 - 0.0
31/06:00am 7.7 6.4 4.3 79 1.5 CALM 0 0 0 0 1008.8 1006.3 0.0
31/05:30am 9.0 6.9 5.6 79 1.6 N 6 7 3 4 1008.5 - 0.0
31/05:00am 9.8 8.8 5.8 76 1.9 CALM 0 0 0 0 1008.4 - 0.0
31/04:30am 9.4 8.5 5.9 79 1.7 CALM 0 0 0 0 1008.5 - 0.0
31/04:00am 9.8 7.8 6.3 79 1.7 E 6 7 3 4 1008.7 - 0.0
31/03:30am 9.9 6.8 5.7 75 2.0 S 11 13 6 7 1008.9 - 0.0
31/03:00am 11.6 7.6 6.5 71 2.5 S 17 20 9 11 1009.1 1006.6 0.0
31/02:30am 11.1 8.1 6.0 71 2.5 S 11 13 6 7 1009.2 - 0.0
31/02:00am 12.2 9.3 6.7 69 2.7 S 11 15 6 8 1009.3 - 0.0
31/01:30am 12.0 9.9 6.5 69 2.7 SSE 7 9 4 5 1009.5 - 0.0
31/01:00am 12.9 9.7 6.9 67 3.0 S 13 17 7 9 1009.6 - 0.0
31/12:30am 13.3 10.1 6.9 65 3.2 SSE 13 20 7 11 1009.7 - 0.0
31/12:00am 13.0 10.1 6.6 65 3.2 S 11 15 6 8 1010.1 1007.6 0.0
 
Date/Time
EDT
Tmp

°C
App
Tmp
°C
Dew
Point
°C
Rel
Hum
%
Delta-T

°C
Wind Press
QNH
hPa
Press
MSL
hPa
Rain
since
9 am
mm
Dir
 
Spd
km/h
Gust
km/h
Spd
kts
Gust
kts
30/11:30pm 12.9 9.7 6.9 67 3.0 SSE 13 19 7 10 1010.2 - 0.0
30/11:00pm 13.3 10.2 7.1 66 3.1 SSE 13 20 7 11 1010.3 - 0.0
30/10:30pm 14.4 10.5 7.0 61 3.7 SSE 17 24 9 13 1010.2 - 0.0
30/10:00pm 14.7 10.4 7.0 60 3.9 SSE 19 30 10 16 1010.1 - 0.0
30/09:30pm 14.5 10.9 6.8 60 3.9 SSE 15 24 8 13 1010.0 - 0.0
30/09:00pm 14.6 10.5 6.4 58 4.1 SSE 17 24 9 13 1009.8 1007.4 0.0
30/08:30pm 15.5 10.9 6.5 55 4.5 SSE 20 30 11 16 1009.3 - 0.0
30/08:00pm 16.5 12.2 6.9 53 4.9 SSE 19 28 10 15 1009.1 - 0.0
30/07:30pm 17.4 12.5 6.9 50 5.4 S 22 32 12 17 1008.8 - 0.0
30/07:00pm 18.2 12.6 7.0 48 5.8 S 26 33 14 18 1008.7 - 0.0
30/06:30pm 18.7 16.1 7.8 49 5.7 SW 11 17 6 9 1008.6 - 0.0
30/06:00pm 18.7 12.8 7.5 48 5.9 SSW 28 35 15 19 1008.5 1006.0 0.0
30/05:30pm 19.5 13.7 6.3 42 6.8 SSW 26 41 14 22 1008.2 - 0.0
30/05:00pm 20.0 14.9 6.0 40 7.2 S 22 32 12 17 1008.2 - 0.0
30/04:30pm 20.1 17.7 6.8 42 6.9 W 9 17 5 9 1008.4 - 0.0
30/04:00pm 20.0 16.5 7.1 43 6.7 W 15 19 8 10 1008.6 - 0.0
30/03:30pm 19.8 17.7 8.2 47 6.2 N 9 11 5 6 1008.8 - 0.0
30/03:00pm 17.6 13.8 9.2 58 4.5 W 19 33 10 18 1009.2 1006.7 0.0
30/02:30pm 18.3 15.5 7.1 48 5.8 W 11 15 6 8 1009.2 - 0.0
30/02:00pm 18.5 15.4 5.7 43 6.5 WNW 11 17 6 9 1009.3 - 0.0
30/01:30pm 19.4 15.1 7.2 45 6.4 W 19 28 10 15 1009.5 - 0.0
30/01:00pm 19.8 15.6 5.5 39 7.2 SW 17 33 9 18 1009.7 - 0.0
30/12:30pm 18.1 15.2 6.3 46 6.0 SSW 11 17 6 9 1010.3 - 0.0
30/12:00pm 19.0 14.7 6.8 45 6.3 SSW 19 28 10 15 1010.6 1008.1 0.0
30/11:30am 18.0 13.4 5.6 44 6.2 SSW 19 28 10 15 1011.0 - 0.0

Latest Capital City Observations: Canberra | Sydney | Melbourne | Brisbane | Adelaide | Perth | Hobart | Darwin

Other Formats:

Comma delimited format used in spreadsheet applications
http://www.bom.gov.au/fwo/IDN60903/IDN60903.94926.axf

JavaScript Object Notation format (JSON) in row-major order
http://www.bom.gov.au/fwo/IDN60903/IDN60903.94926.json